Whitefish Bay: Past 24 Hour Conditions

 

Sault Ste. Marie Airport

06:00 PM EDT 25 October 2014
This table is a summary of hourly weather conditions for the past 24 hours.
Date / Time
(EDT)
Wind(knots) Conditions Visibility(km) Pressure(kPa) Air tempC) Relative humidity(%) Dew pointC)
25 October 2014
18:00 WNW 25 gust 33 Mostly Cloudy 24 100.5 11 61 4
17:00 W 21 gust 30 Mostly Cloudy 24 100.5 11 63 4
16:00 WNW 19 gust 27 Mostly Cloudy 24 100.5 10 67 5
15:00 WNW 22 gust 31 Mostly Cloudy 24 100.5 11 59 3
14:00 NW 21 gust 28 Mostly Cloudy 24 100.4 11 66 5
13:00 WNW 23 gust 31 Mostly Cloudy 24 100.4 13 57 5
12:00 WNW 19 gust 26 Partly Cloudy 24 100.4 13 59 6
11:00 W 14 gust 22 Sunny 24 100.4 13 63 6
10:00 W 15 Sunny 24 100.4 13 65 6
9:00 W 14 Sunny 24 100.4 12 68 6
8:00 W 12 gust 19 Clear 24 100.3 11 79 8
7:00 W 19 gust 24 Mainly Clear 24 100.3 12 78 9
6:00 N 1 Mostly Cloudy 19 100.4 11 93 10
5:00 SSW 7 Mostly Cloudy 16 100.5 11 92 10
4:00 SW 7 gust 15 Cloudy 16 100.6 11 91 10
3:00 SW 8 Cloudy 24 100.6 11 90 9
2:00 SSW 8 Cloudy 24 100.8 10 89 9
1:00 SSW 9 Cloudy 24 100.9 10 89 8
0:00 S 5 Cloudy 24 101.0 10 90 8
24 October 2014
23:00 SSW 8 Cloudy 24 101.1 10 88 8
22:00 S 6 Cloudy 24 101.2 10 88 8
21:00 SW 6 Cloudy 24 101.2 10 88 8
20:00 SSW 6 Cloudy 24 101.3 10 86 8
19:00 S 6 Cloudy 24 101.3 11 86 8
18:00 SSW 6 Cloudy 24 101.3 11 85 9
 
Map of Great Lakes - Lake Erie and Lake Ontario marine weather areas Egbert N Huron - 45003 W Erie - 45005 S Huron - 45008 Lake Ontario - 45012 Port Stanley - 45132 Prince Edward Point - 45135 Georgian Bay - 45137 Grimsby - 45139 Port Colborne - 45142 South Georgian Bay - 45143 Lake St Clair - 45147 South Lake Huron - 45149 Lake Simcoe - 45151 Lake Nipissing - 45152 North Channel - 45154 Ajax - 45159 Sault Ste. Marie Airport Greater Sudbury Airport North Bay Airport Gore Bay-Manitoulin Airport Great Duck Island Brockville Grenadier Island Kemptville Kingston Airport Collingwood Lagoon City Muskoka Airport Parry Sound Harbour Lake Simcoe Regional Airport Wiarton Airport Goderich Sarnia Chris Hadfield Airport Tobermory Harrow AAFC Port Weller St. Catharines Airport Southeast Shoal Vineland Station Welland-Pelham Windsor Airport Burlington Lift Bridge Cobourg Hamilton Munro Int'l Airport Oshawa Municipal Airport Point Petre Toronto City Centre Airport Toronto Pearson Int'l Airport CFB Trenton Peterborough Municipal Airport Killarney Western Islands CFB Borden Cove Island Long Point Port Colborne Erieau Point Pelee Toronto Buttonville Municipal Airport
Legend: buoyBuoy land stationLand Station » US Marine Weather